GRZ570 Details

Departure: King Salmon Airport (PAKN)
Arrival: Cold Bay Airport (PACD)
Route: AKN J115 CDB


Current Weather Information
PAKN 231154Z 11022G47KT 7SM -RA BKN050 BKN060 08/04 A2867 RMK AO2 PK WND 10047/1145 RAB46 SLP709 P0000 60003 70008 T00830044 10100 20067 55026
PACD 231153Z AUTO 29040G47KT 8SM -RA BKN017 BKN023 OVC037 06/03 A2900 RMK AO2 PK WND 29047/1153 SLP821 P0002 60021 70063 T00560033 10067 20056 51024 TSNO $